createdAt,value
2022-11-14T00:00:53.024Z,4.25
2022-11-14T00:03:39.485Z,4.24
2022-11-14T00:06:26.115Z,4.22
2022-11-14T00:09:12.784Z,4.25
2022-11-14T00:11:59.472Z,4.21
2022-11-14T00:14:47.330Z,4.21
2022-11-14T00:17:34.066Z,4.23
2022-11-14T00:20:20.907Z,4.18
2022-11-14T00:23:07.400Z,4.21
2022-11-14T00:25:54.022Z,4.23
2022-11-14T00:28:40.718Z,4.22
2022-11-14T00:31:28.806Z,4.22
2022-11-14T00:34:15.599Z,4.20
2022-11-14T00:37:02.562Z,4.19
2022-11-14T00:39:49.244Z,4.19
2022-11-14T00:42:35.891Z,4.18
2022-11-14T00:45:23.124Z,4.17
2022-11-14T00:48:11.223Z,4.15
2022-11-14T00:50:57.743Z,4.17
2022-11-14T00:53:44.284Z,4.19
2022-11-14T00:56:30.978Z,4.15
2022-11-14T00:59:17.740Z,4.15
2022-11-14T01:02:04.408Z,4.13
2022-11-14T01:04:52.278Z,4.13
2022-11-14T01:07:38.516Z,4.12
2022-11-14T01:10:25.307Z,4.13
2022-11-14T01:13:12.853Z,4.16
2022-11-14T01:16:02.203Z,4.13
2022-11-14T01:18:48.896Z,4.08
2022-11-14T01:21:36.943Z,4.11
2022-11-14T01:24:23.286Z,4.10
2022-11-14T01:27:09.889Z,4.14
2022-11-14T01:29:56.669Z,4.13
2022-11-14T01:32:43.374Z,4.14
2022-11-14T01:35:30.491Z,4.13
2022-11-14T01:38:18.633Z,4.13
2022-11-14T01:41:05.793Z,4.14
2022-11-14T01:43:52.255Z,4.18
2022-11-14T01:46:41.960Z,4.15
2022-11-14T01:49:36.915Z,4.15
2022-11-14T01:52:26.657Z,4.17
2022-11-14T01:55:15.290Z,4.14
2022-11-14T01:58:01.954Z,4.17
2022-11-14T02:00:49.282Z,4.13
2022-11-14T02:03:39.331Z,4.19
2022-11-14T02:06:30.134Z,4.17
2022-11-14T02:09:17.460Z,4.14
2022-11-14T02:12:10.267Z,4.08
2022-11-14T02:14:59.938Z,4.06
2022-11-14T02:17:46.672Z,4.07
2022-11-14T02:20:37.772Z,4.07
2022-11-14T02:23:29.252Z,4.06
2022-11-14T02:26:18.608Z,4.05
2022-11-14T02:29:05.477Z,4.07
2022-11-14T02:31:51.959Z,4.09
2022-11-14T02:34:38.812Z,4.11
2022-11-14T02:37:26.737Z,4.03
2022-11-14T02:40:13.363Z,4.12
2022-11-14T02:42:59.977Z,4.02
2022-11-14T02:45:46.840Z,4.01
2022-11-14T02:48:33.159Z,4.06
2022-11-14T02:51:19.548Z,4.03
2022-11-14T02:54:08.321Z,4.03
2022-11-14T02:56:55.051Z,3.95
2022-11-14T02:59:41.620Z,3.90
2022-11-14T03:02:28.120Z,3.94
2022-11-14T03:05:14.890Z,3.92
2022-11-14T03:08:01.471Z,3.86
2022-11-14T03:10:49.384Z,3.86
2022-11-14T03:13:36.319Z,3.90
2022-11-14T03:16:23.080Z,3.89
2022-11-14T03:19:09.631Z,3.91
2022-11-14T03:21:56.125Z,3.88
2022-11-14T03:24:42.566Z,3.80
2022-11-14T03:27:30.366Z,3.80
2022-11-14T03:30:17.235Z,3.80
2022-11-14T03:33:03.520Z,3.78
2022-11-14T03:35:51.119Z,3.80
2022-11-14T03:38:37.973Z,3.80
2022-11-14T03:41:24.330Z,3.84
2022-11-14T03:44:12.311Z,3.85
2022-11-14T03:46:59.453Z,3.83
2022-11-14T03:49:46.401Z,3.87
2022-11-14T03:52:32.966Z,3.87
2022-11-14T03:55:19.654Z,3.87
2022-11-14T03:58:06.381Z,3.89
2022-11-14T04:00:55.934Z,3.92
2022-11-14T04:03:42.344Z,3.95
2022-11-14T04:06:28.791Z,3.95
2022-11-14T04:09:15.609Z,3.96
2022-11-14T04:12:01.933Z,3.94
2022-11-14T04:14:48.601Z,3.95
2022-11-14T04:17:39.840Z,3.96
2022-11-14T04:20:26.875Z,3.96
2022-11-14T04:23:13.441Z,3.90
2022-11-14T04:26:00.011Z,3.90
2022-11-14T04:28:46.630Z,3.89
2022-11-14T04:31:33.240Z,3.91
2022-11-14T04:34:21.204Z,3.83
2022-11-14T04:37:07.834Z,3.87
2022-11-14T04:39:58.509Z,3.85
2022-11-14T04:42:45.083Z,3.88
2022-11-14T04:45:31.805Z,3.85
2022-11-14T04:48:18.388Z,3.90
2022-11-14T04:51:06.547Z,3.87
2022-11-14T04:53:53.243Z,3.88
2022-11-14T04:56:39.736Z,3.78
2022-11-14T04:59:26.383Z,3.79
2022-11-14T05:02:13.007Z,3.81
2022-11-14T05:04:59.479Z,3.71
2022-11-14T05:07:47.312Z,3.72
2022-11-14T05:10:33.917Z,3.68
2022-11-14T05:13:20.736Z,3.71
2022-11-14T05:16:07.669Z,3.65
2022-11-14T05:18:55.011Z,3.63
2022-11-14T05:21:41.333Z,3.58
2022-11-14T05:24:29.374Z,3.57
2022-11-14T05:27:15.664Z,3.53
2022-11-14T05:30:02.087Z,3.52
2022-11-14T05:32:48.941Z,3.51
2022-11-14T05:35:35.561Z,3.46
2022-11-14T05:38:22.507Z,3.41
2022-11-14T05:41:12.947Z,3.39
2022-11-14T05:43:59.615Z,3.45
2022-11-14T05:46:46.397Z,3.46
2022-11-14T05:49:33.288Z,3.44
2022-11-14T05:52:20.010Z,3.48
2022-11-14T05:55:07.310Z,3.51
2022-11-14T05:57:59.283Z,3.56
2022-11-14T06:00:53.441Z,3.51
2022-11-14T06:03:42.228Z,3.53
2022-11-14T06:06:29.388Z,3.58
2022-11-14T06:09:15.725Z,3.58
2022-11-14T06:12:06.109Z,3.67
2022-11-14T06:14:54.187Z,3.64
2022-11-14T06:17:41.242Z,3.67
2022-11-14T06:20:27.691Z,3.71
2022-11-14T06:23:14.114Z,3.71
2022-11-14T06:26:01.637Z,3.74
2022-11-14T06:28:49.514Z,3.73
2022-11-14T06:31:37.365Z,3.74
2022-11-14T06:34:23.963Z,3.78
2022-11-14T06:37:10.571Z,3.82
2022-11-14T06:39:56.776Z,3.82
2022-11-14T06:42:43.311Z,3.84
2022-11-14T06:45:30.128Z,3.87
2022-11-14T06:48:17.885Z,3.90
2022-11-14T06:51:06.314Z,3.94
2022-11-14T06:53:52.921Z,3.95
2022-11-14T06:56:39.717Z,3.96
2022-11-14T06:59:26.251Z,4.01
2022-11-14T07:02:17.754Z,4.03
2022-11-14T07:05:10.275Z,4.12
2022-11-14T07:07:58.886Z,4.16
2022-11-14T07:10:45.597Z,4.22
2022-11-14T07:13:32.710Z,4.27
2022-11-14T07:16:19.795Z,4.21
2022-11-14T07:19:09.149Z,4.21
2022-11-14T07:21:56.904Z,4.20
2022-11-14T07:24:43.477Z,4.18
2022-11-14T07:27:30.407Z,4.22
2022-11-14T07:30:17.638Z,4.20
2022-11-14T07:33:04.095Z,4.20
2022-11-14T07:35:52.516Z,4.19
2022-11-14T07:38:41.113Z,4.21
2022-11-14T07:41:27.607Z,4.21
2022-11-14T07:44:14.016Z,4.24
2022-11-14T07:47:00.697Z,4.22
2022-11-14T07:49:47.517Z,4.24
2022-11-14T07:52:34.077Z,4.27
2022-11-14T07:55:22.895Z,4.28
2022-11-14T07:58:09.537Z,4.31
2022-11-14T08:00:55.784Z,4.35
2022-11-14T08:03:45.622Z,4.39
2022-11-14T08:06:33.308Z,4.45
2022-11-14T08:09:20.221Z,4.50
2022-11-14T08:12:08.606Z,4.55
2022-11-14T08:14:54.829Z,4.61
2022-11-14T08:17:41.617Z,4.61
2022-11-14T08:20:28.573Z,4.62
2022-11-14T08:23:15.151Z,4.69
2022-11-14T08:26:01.863Z,4.76
2022-11-14T08:28:53.170Z,4.82
2022-11-14T08:31:40.369Z,4.87
2022-11-14T08:34:26.979Z,4.94
2022-11-14T08:37:13.520Z,5.01
2022-11-14T08:39:59.995Z,5.12
2022-11-14T08:42:46.654Z,5.16
2022-11-14T08:45:34.371Z,5.30
2022-11-14T08:48:20.863Z,5.46
2022-11-14T08:51:08.506Z,5.62
2022-11-14T08:53:54.963Z,5.69
2022-11-14T08:56:41.602Z,5.95
2022-11-14T08:59:28.224Z,6.02
2022-11-14T09:02:16.182Z,6.14
2022-11-14T09:05:02.789Z,6.17
2022-11-14T09:07:49.004Z,6.25
2022-11-14T09:10:35.750Z,6.31
2022-11-14T09:13:22.624Z,6.37
2022-11-14T09:16:09.766Z,6.38
2022-11-14T09:18:57.643Z,6.45
2022-11-14T09:21:44.475Z,6.49
2022-11-14T09:24:31.161Z,6.54
2022-11-14T09:27:18.575Z,6.58
2022-11-14T09:30:06.281Z,6.63
2022-11-14T09:32:52.948Z,6.69
2022-11-14T09:35:41.335Z,6.71
2022-11-14T09:38:30.118Z,6.78
2022-11-14T09:41:25.171Z,6.82
2022-11-14T09:44:30.674Z,6.86
2022-11-14T09:47:21.661Z,6.90
2022-11-14T09:50:12.663Z,6.94
2022-11-14T09:53:06.165Z,6.98
2022-11-14T09:55:53.309Z,7.04
2022-11-14T09:58:42.614Z,7.11
2022-11-14T10:01:41.507Z,7.20
2022-11-14T10:04:42.043Z,7.31
2022-11-14T10:07:40.233Z,7.42
2022-11-14T10:10:43.400Z,7.47
2022-11-14T10:13:51.092Z,7.56
2022-11-14T10:16:47.726Z,7.67
2022-11-14T10:19:42.811Z,7.71
2022-11-14T10:22:51.791Z,7.72
2022-11-14T10:25:53.725Z,7.75
2022-11-14T10:28:48.547Z,7.80
2022-11-14T10:31:47.225Z,7.82
2022-11-14T10:34:39.081Z,7.90
2022-11-14T10:37:32.707Z,7.98
2022-11-14T10:40:23.104Z,8.06
2022-11-14T10:43:21.638Z,8.12
2022-11-14T10:46:14.369Z,8.17
2022-11-14T10:49:01.206Z,8.19
2022-11-14T10:51:51.524Z,8.24
2022-11-14T10:54:42.972Z,8.29
2022-11-14T10:57:30.671Z,8.33
2022-11-14T11:00:22.959Z,8.38
2022-11-14T11:03:09.797Z,8.42
2022-11-14T11:05:57.740Z,8.48
2022-11-14T11:09:02.086Z,8.56
2022-11-14T11:11:56.694Z,8.63
2022-11-14T11:14:44.261Z,8.65
2022-11-14T11:17:38.617Z,8.68
2022-11-14T11:20:32.020Z,8.71
2022-11-14T11:23:21.522Z,8.72
2022-11-14T11:26:17.065Z,8.73
2022-11-14T11:29:17.288Z,8.76
2022-11-14T11:32:04.039Z,8.77
2022-11-14T11:34:53.290Z,8.79
2022-11-14T11:37:45.004Z,8.77
2022-11-14T11:40:31.879Z,8.78
2022-11-14T11:43:42.856Z,8.77
2022-11-14T11:46:35.373Z,8.82
2022-11-14T11:49:36.352Z,8.80
2022-11-14T11:52:33.763Z,8.81
2022-11-14T11:55:25.082Z,8.83
2022-11-14T11:58:17.709Z,8.82
2022-11-14T12:01:04.443Z,8.84
2022-11-14T12:03:53.241Z,8.86
2022-11-14T12:06:47.484Z,8.89
2022-11-14T12:10:09.458Z,8.91
2022-11-14T12:13:06.622Z,8.95
2022-11-14T12:16:10.234Z,9.27
2022-11-14T12:19:25.568Z,9.15
2022-11-14T12:22:23.826Z,9.29
2022-11-14T12:25:39.488Z,9.39
2022-11-14T12:28:42.331Z,9.46
2022-11-14T12:31:33.320Z,9.47
2022-11-14T12:34:28.200Z,9.47
2022-11-14T12:37:21.837Z,9.51
2022-11-14T12:40:25.378Z,9.57
2022-11-14T12:43:36.392Z,9.61
2022-11-14T12:46:23.784Z,9.67
2022-11-14T12:49:38.426Z,9.68
2022-11-14T12:52:44.433Z,9.69
2022-11-14T12:56:03.609Z,9.68
2022-11-14T12:59:05.563Z,9.69
2022-11-14T13:02:28.287Z,9.73
2022-11-14T13:05:25.381Z,9.75
2022-11-14T13:08:45.694Z,9.74
2022-11-14T13:11:58.244Z,9.77
2022-11-14T13:15:08.071Z,9.86
2022-11-14T13:18:23.151Z,9.85
2022-11-14T13:21:45.373Z,9.92
2022-11-14T13:25:18.150Z,9.95
2022-11-14T13:28:38.659Z,10.00
2022-11-14T13:31:50.673Z,9.97
2022-11-14T13:34:43.200Z,10.01
2022-11-14T13:37:58.901Z,10.04
2022-11-14T13:40:53.173Z,10.07
2022-11-14T13:43:57.103Z,10.12
2022-11-14T13:47:10.322Z,10.24
2022-11-14T13:50:06.650Z,10.20
2022-11-14T13:52:53.882Z,10.22
2022-11-14T13:56:02.389Z,10.24
2022-11-14T13:59:06.400Z,10.32
2022-11-14T14:02:16.222Z,10.31
2022-11-14T14:05:14.153Z,10.33
2022-11-14T14:08:15.269Z,10.38
2022-11-14T14:11:23.382Z,10.38
2022-11-14T14:14:25.430Z,10.39
2022-11-14T14:17:21.783Z,10.38
2022-11-14T14:20:22.444Z,10.33
2022-11-14T14:23:19.795Z,10.30
2022-11-14T14:26:20.226Z,10.27
2022-11-14T14:38:02.127Z,10.16
2022-11-14T14:40:49.429Z,10.15
2022-11-14T14:43:36.685Z,10.10
2022-11-14T14:46:32.022Z,10.11
2022-11-14T14:49:26.841Z,10.08
2022-11-14T14:52:29.602Z,10.03
2022-11-14T14:55:22.579Z,9.99
2022-11-14T14:58:22.270Z,9.97
2022-11-14T15:01:16.756Z,9.95
2022-11-14T15:04:06.189Z,9.89
2022-11-14T15:06:52.887Z,9.87
2022-11-14T15:09:39.734Z,9.83
2022-11-14T15:12:31.020Z,9.80
2022-11-14T15:15:20.163Z,9.76
2022-11-14T15:18:09.897Z,9.72
2022-11-14T15:21:14.782Z,9.70
2022-11-14T15:24:04.062Z,9.64
2022-11-14T15:26:52.306Z,9.63
2022-11-14T15:29:46.762Z,9.61
2022-11-14T15:32:33.709Z,9.57
2022-11-14T15:35:31.763Z,9.53
2022-11-14T15:38:43.219Z,9.51
2022-11-14T15:41:31.165Z,9.46
2022-11-14T15:44:30.959Z,9.49
2022-11-14T15:47:24.165Z,9.45
2022-11-14T15:50:30.306Z,9.42
2022-11-14T15:53:23.768Z,9.41
2022-11-14T15:56:13.051Z,9.37
2022-11-14T15:58:59.683Z,9.31
2022-11-14T16:01:50.482Z,9.28
2022-11-14T16:04:44.369Z,9.29
2022-11-14T16:07:34.125Z,9.28
2022-11-14T16:10:22.437Z,9.28
2022-11-14T16:13:10.152Z,9.26
2022-11-14T16:15:56.920Z,9.22
2022-11-14T16:18:43.155Z,9.18
2022-11-14T16:21:31.198Z,9.19
2022-11-14T16:24:19.786Z,9.15
2022-11-14T16:27:06.469Z,9.13
2022-11-14T16:29:53.134Z,9.10
2022-11-14T16:32:40.342Z,9.09
2022-11-14T16:35:28.025Z,9.05
2022-11-14T16:38:15.651Z,9.00
2022-11-14T16:41:01.977Z,8.97
2022-11-14T16:43:48.565Z,8.97
2022-11-14T16:46:36.118Z,8.97
2022-11-14T16:49:22.562Z,8.94
2022-11-14T16:52:11.513Z,8.91
2022-11-14T16:54:59.374Z,8.87
2022-11-14T16:57:45.808Z,8.84
2022-11-14T17:00:33.583Z,8.84
2022-11-14T17:03:20.096Z,8.82
2022-11-14T17:06:09.497Z,8.76
2022-11-14T17:08:56.233Z,8.75
2022-11-14T17:11:45.139Z,8.67
2022-11-14T17:14:31.854Z,8.64
2022-11-14T17:17:18.427Z,8.60
2022-11-14T17:20:05.809Z,8.58
2022-11-14T17:22:51.913Z,8.50
2022-11-14T17:25:38.432Z,8.43
2022-11-14T17:28:26.436Z,8.40
2022-11-14T17:31:12.751Z,8.39
2022-11-14T17:34:01.049Z,8.40
2022-11-14T17:36:47.228Z,8.34
2022-11-14T17:39:35.136Z,8.35
2022-11-14T17:42:21.374Z,8.33
2022-11-14T17:45:10.647Z,8.34
2022-11-14T17:47:57.363Z,8.24
2022-11-14T17:50:44.055Z,8.22
2022-11-14T17:53:31.054Z,8.20
2022-11-14T17:56:20.209Z,8.18
2022-11-14T17:59:06.865Z,8.17
2022-11-14T18:01:57.543Z,8.17
2022-11-14T18:04:44.294Z,8.22
2022-11-14T18:07:31.130Z,8.29
2022-11-14T18:10:18.499Z,8.33
2022-11-14T18:13:05.206Z,8.31
2022-11-14T18:15:51.960Z,8.30
2022-11-14T18:18:40.217Z,8.30
2022-11-14T18:21:27.152Z,8.31
2022-11-14T18:24:14.950Z,8.35
2022-11-14T18:27:01.663Z,8.37
2022-11-14T18:29:48.575Z,8.35
2022-11-14T18:32:35.339Z,8.40
2022-11-14T18:35:23.216Z,8.43
2022-11-14T18:38:09.599Z,8.43
2022-11-14T18:40:57.677Z,8.44
2022-11-14T18:43:45.391Z,8.46
2022-11-14T18:46:37.051Z,8.43
2022-11-14T18:49:23.841Z,8.42
2022-11-14T18:52:17.192Z,8.42
2022-11-14T18:55:04.806Z,8.45
2022-11-14T18:57:51.401Z,8.43
2022-11-14T19:00:37.890Z,8.42
2022-11-14T19:03:24.396Z,8.42
2022-11-14T19:06:12.430Z,8.41
2022-11-14T19:09:03.579Z,8.40
2022-11-14T19:12:11.085Z,8.39
2022-11-14T19:14:57.462Z,8.40
2022-11-14T19:17:44.198Z,8.35
2022-11-14T19:20:30.595Z,8.33
2022-11-14T19:23:17.302Z,8.28
2022-11-14T19:26:05.571Z,8.23
2022-11-14T19:28:52.047Z,8.18
2022-11-14T19:31:38.798Z,8.15
2022-11-14T19:34:25.653Z,8.10
2022-11-14T19:37:12.191Z,8.01
2022-11-14T19:39:58.845Z,7.98
2022-11-14T19:42:46.823Z,8.00
2022-11-14T19:45:35.372Z,7.97
2022-11-14T19:48:21.884Z,7.95
2022-11-14T19:51:11.373Z,7.91
2022-11-14T19:53:59.795Z,7.87
2022-11-14T19:56:46.236Z,7.87
2022-11-14T19:59:34.247Z,7.85
2022-11-14T20:02:20.760Z,7.86
2022-11-14T20:05:08.713Z,7.81
2022-11-14T20:07:55.429Z,7.81
2022-11-14T20:10:48.385Z,7.78
2022-11-14T20:13:36.397Z,7.77
2022-11-14T20:16:26.590Z,7.75
2022-11-14T20:19:14.791Z,7.75
2022-11-14T20:22:01.430Z,7.77
2022-11-14T20:24:50.447Z,7.80
2022-11-14T20:27:37.311Z,7.76
2022-11-14T20:30:25.123Z,7.77
2022-11-14T20:33:13.173Z,7.80
2022-11-14T20:36:04.135Z,7.84
2022-11-14T20:38:53.336Z,7.89
2022-11-14T20:41:40.400Z,7.91
2022-11-14T20:44:29.003Z,7.92
2022-11-14T20:47:17.360Z,7.95
2022-11-14T20:50:05.564Z,7.97
2022-11-14T20:52:52.258Z,7.99
2022-11-14T20:55:39.130Z,8.03
2022-11-14T20:58:25.936Z,8.02
2022-11-14T21:01:13.800Z,8.04
2022-11-14T21:04:00.246Z,8.04
2022-11-14T21:06:48.171Z,8.07
2022-11-14T21:09:34.871Z,8.09
2022-11-14T21:12:21.520Z,8.05
2022-11-14T21:15:09.165Z,8.07
2022-11-14T21:17:55.495Z,8.11
2022-11-14T21:20:42.049Z,8.10
2022-11-14T21:23:30.295Z,8.04
2022-11-14T21:26:18.629Z,8.04
2022-11-14T21:29:07.759Z,7.99
2022-11-14T21:31:55.679Z,8.00
2022-11-14T21:34:42.686Z,8.03
2022-11-14T21:37:29.389Z,8.04
2022-11-14T21:40:17.694Z,8.01
2022-11-14T21:43:04.550Z,8.00
2022-11-14T21:45:58.743Z,7.95
2022-11-14T21:48:47.276Z,8.02
2022-11-14T21:51:33.617Z,8.05
2022-11-14T21:54:20.633Z,8.07
2022-11-14T21:57:10.230Z,8.13
2022-11-14T21:59:57.386Z,8.12
2022-11-14T22:03:01.671Z,8.10
2022-11-14T22:05:48.398Z,8.04
2022-11-14T22:08:35.041Z,7.98
2022-11-14T22:11:21.885Z,7.94
2022-11-14T22:14:09.942Z,7.88
2022-11-14T22:16:58.929Z,7.81
2022-11-14T22:19:45.797Z,7.75
2022-11-14T22:22:32.998Z,7.69
2022-11-14T22:25:20.603Z,7.62
2022-11-14T22:28:07.261Z,7.52
2022-11-14T22:31:10.668Z,7.49
2022-11-14T22:33:59.536Z,7.41
2022-11-14T22:36:46.122Z,7.35
2022-11-14T22:39:32.824Z,7.28
2022-11-14T22:42:19.471Z,7.22
2022-11-14T22:45:07.678Z,7.13
2022-11-14T22:47:58.812Z,7.08
2022-11-14T22:50:45.603Z,7.03
2022-11-14T22:53:34.141Z,7.00
2022-11-14T22:56:23.188Z,6.94
2022-11-14T22:59:10.322Z,6.90
2022-11-14T23:01:56.950Z,6.86
2022-11-14T23:04:44.700Z,6.86
2022-11-14T23:07:31.660Z,6.82
2022-11-14T23:10:18.958Z,6.76
2022-11-14T23:13:05.484Z,6.75
2022-11-14T23:15:52.099Z,6.76
2022-11-14T23:18:39.121Z,6.71
2022-11-14T23:21:28.990Z,6.68
2022-11-14T23:24:15.810Z,6.63
2022-11-14T23:27:02.291Z,6.61
2022-11-14T23:29:49.239Z,6.56
2022-11-14T23:32:35.634Z,6.53
2022-11-14T23:35:22.159Z,6.50
2022-11-14T23:38:10.668Z,6.48
2022-11-14T23:40:58.991Z,6.47
2022-11-14T23:43:45.495Z,6.46
2022-11-14T23:46:31.989Z,6.45
2022-11-14T23:49:18.586Z,6.46
2022-11-14T23:52:05.532Z,6.48
2022-11-14T23:54:53.393Z,6.44
2022-11-14T23:57:39.727Z,6.41
